createdAt,value
2023-02-27T00:00:02.212Z,102552.41
2023-02-27T00:02:30.369Z,102549.28
2023-02-27T00:04:58.539Z,102542.09
2023-02-27T00:07:28.703Z,102532.59
2023-02-27T00:09:56.420Z,102530.13
2023-02-27T00:12:25.507Z,102535.09
2023-02-27T00:14:53.230Z,102525.63
2023-02-27T00:17:20.972Z,102540.88
2023-02-27T00:19:48.686Z,102536.94
2023-02-27T00:22:16.417Z,102548.97
2023-02-27T00:24:44.148Z,102556.47
2023-02-27T00:27:11.893Z,102561.25
2023-02-27T00:29:41.004Z,102565.78
2023-02-27T00:32:08.843Z,102571.41
2023-02-27T00:34:36.626Z,102575.50
2023-02-27T00:37:04.561Z,102560.81
2023-02-27T00:39:32.325Z,102545.03
2023-02-27T00:42:00.123Z,102540.28
2023-02-27T00:44:27.917Z,102526.47
2023-02-27T00:46:56.989Z,102517.13
2023-02-27T00:49:25.398Z,102510.13
2023-02-27T00:51:53.466Z,102536.72
2023-02-27T00:54:21.167Z,102529.78
2023-02-27T00:56:48.889Z,102521.19
2023-02-27T00:59:16.627Z,102526.03
2023-02-27T01:01:45.401Z,102539.47
2023-02-27T01:04:14.765Z,102554.78
2023-02-27T01:06:42.507Z,102556.75
2023-02-27T01:09:10.336Z,102544.22
2023-02-27T01:11:38.056Z,102532.88
2023-02-27T01:14:06.185Z,102526.09
2023-02-27T01:16:33.988Z,102517.19
2023-02-27T01:19:01.746Z,102510.59
2023-02-27T01:21:30.884Z,102496.84
2023-02-27T01:23:58.659Z,102495.81
2023-02-27T01:26:26.514Z,102482.50
2023-02-27T01:28:54.267Z,102481.44
2023-02-27T01:31:22.029Z,102490.91
2023-02-27T01:33:50.062Z,102503.66
2023-02-27T01:36:17.856Z,102501.47
2023-02-27T01:38:46.962Z,102489.69
2023-02-27T01:41:15.156Z,102479.06
2023-02-27T01:43:57.701Z,102476.44
2023-02-27T01:46:26.142Z,102494.38
2023-02-27T01:48:59.520Z,102498.31
2023-02-27T01:51:32.262Z,102472.06
2023-02-27T01:54:02.366Z,102455.22
2023-02-27T01:56:32.260Z,102438.38
2023-02-27T01:59:03.473Z,102420.88
2023-02-27T02:01:32.952Z,102423.06
2023-02-27T02:04:06.722Z,102424.00
2023-02-27T02:06:38.857Z,102410.44
2023-02-27T02:09:09.794Z,102411.69
2023-02-27T02:11:39.138Z,102416.81
2023-02-27T02:14:10.784Z,102426.31
2023-02-27T02:17:02.949Z,102426.22
2023-02-27T02:19:55.272Z,102432.06
2023-02-27T02:22:58.571Z,102443.13
2023-02-27T02:26:06.372Z,102452.22
2023-02-27T02:28:59.386Z,102450.31
2023-02-27T02:31:49.181Z,102457.84
2023-02-27T02:34:54.499Z,102460.84
2023-02-27T02:38:04.077Z,102449.69
2023-02-27T02:40:40.875Z,102462.91
2023-02-27T02:43:16.254Z,102468.41
2023-02-27T02:45:51.029Z,102465.69
2023-02-27T02:48:23.411Z,102462.16
2023-02-27T02:50:57.421Z,102475.13
2023-02-27T02:53:37.298Z,102476.69
2023-02-27T02:56:11.199Z,102479.72
2023-02-27T02:58:46.980Z,102470.44
2023-02-27T03:01:17.946Z,102475.69
2023-02-27T03:03:50.245Z,102479.44
2023-02-27T03:06:23.315Z,102477.09
2023-02-27T03:08:56.681Z,102476.59
2023-02-27T03:11:30.721Z,102469.41
2023-02-27T03:14:04.351Z,102480.19
2023-02-27T03:16:36.945Z,102475.75
2023-02-27T03:19:11.717Z,102474.16
2023-02-27T03:21:44.786Z,102480.13
2023-02-27T03:24:19.928Z,102478.69
2023-02-27T03:26:51.851Z,102488.88
2023-02-27T03:29:24.728Z,102489.78
2023-02-27T03:31:58.253Z,102496.25
2023-02-27T03:34:30.019Z,102496.03
2023-02-27T03:37:05.706Z,102500.34
2023-02-27T03:39:41.424Z,102504.66
2023-02-27T03:42:18.532Z,102510.00
2023-02-27T03:44:55.824Z,102508.97
2023-02-27T03:47:23.842Z,102503.16
2023-02-27T03:49:52.161Z,102493.09
2023-02-27T03:52:20.939Z,102496.00
2023-02-27T03:54:54.271Z,102486.38
2023-02-27T03:57:23.926Z,102504.50
2023-02-27T03:59:53.293Z,102516.03
2023-02-27T04:02:21.635Z,102516.94
2023-02-27T04:04:49.382Z,102526.41
2023-02-27T04:07:25.682Z,102533.25
2023-02-27T04:10:31.956Z,102544.44
2023-02-27T04:13:34.194Z,102550.59
2023-02-27T04:16:49.338Z,102566.03
2023-02-27T04:19:24.740Z,102573.91
2023-02-27T04:22:06.033Z,102558.66
2023-02-27T04:24:39.741Z,102557.44
2023-02-27T04:27:19.346Z,102567.84
2023-02-27T04:29:57.528Z,102582.75
2023-02-27T04:32:34.233Z,102591.44
2023-02-27T04:35:06.957Z,102595.25
2023-02-27T04:37:43.695Z,102575.22
2023-02-27T04:40:15.232Z,102566.28
2023-02-27T04:42:47.287Z,102557.88
2023-02-27T04:45:21.928Z,102566.47
2023-02-27T04:47:54.416Z,102575.31
2023-02-27T04:50:27.263Z,102578.88
2023-02-27T04:53:00.973Z,102586.78
2023-02-27T04:55:34.075Z,102579.44
2023-02-27T04:58:05.208Z,102588.22
2023-02-27T05:00:38.150Z,102583.84
2023-02-27T05:03:10.976Z,102587.69
2023-02-27T05:05:41.822Z,102581.56
2023-02-27T05:08:13.621Z,102583.28
2023-02-27T05:10:47.566Z,102588.13
2023-02-27T05:13:19.753Z,102605.47
2023-02-27T05:15:53.911Z,102625.13
2023-02-27T05:18:23.541Z,102632.16
2023-02-27T05:20:57.319Z,102660.56
2023-02-27T05:23:35.708Z,102658.56
2023-02-27T05:26:12.866Z,102674.19
2023-02-27T05:28:51.697Z,102663.09
2023-02-27T05:31:27.397Z,102676.44
2023-02-27T05:34:00.255Z,102676.47
2023-02-27T05:36:34.809Z,102665.47
2023-02-27T05:39:05.663Z,102657.34
2023-02-27T05:41:38.402Z,102643.03
2023-02-27T05:44:12.442Z,102640.72
2023-02-27T05:46:46.005Z,102658.59
2023-02-27T05:49:18.227Z,102673.91
2023-02-27T05:51:49.956Z,102687.13
2023-02-27T05:54:23.406Z,102685.97
2023-02-27T05:56:53.990Z,102696.72
2023-02-27T05:59:29.309Z,102704.19
2023-02-27T06:01:58.496Z,102699.94
2023-02-27T06:04:26.305Z,102709.22
2023-02-27T06:06:55.096Z,102716.06
2023-02-27T06:09:22.941Z,102732.72
2023-02-27T06:11:50.755Z,102730.38
2023-02-27T06:14:18.870Z,102734.97
2023-02-27T06:16:46.670Z,102725.78
2023-02-27T06:19:15.902Z,102716.06
2023-02-27T06:21:43.578Z,102698.97
2023-02-27T06:24:11.366Z,102681.16
2023-02-27T06:26:39.279Z,102669.91
2023-02-27T06:29:07.018Z,102671.78
2023-02-27T06:31:34.751Z,102662.09
2023-02-27T06:34:02.917Z,102666.63
2023-02-27T06:36:32.084Z,102680.06
2023-02-27T06:38:59.780Z,102664.47
2023-02-27T06:41:28.604Z,102702.25
2023-02-27T06:43:58.032Z,102698.16
2023-02-27T06:46:26.189Z,102719.13
2023-02-27T06:48:54.262Z,102744.22
2023-02-27T06:51:22.126Z,102749.28
2023-02-27T06:53:51.233Z,102746.22
2023-02-27T06:56:19.095Z,102756.09
2023-02-27T06:58:46.823Z,102754.53
2023-02-27T07:01:14.588Z,102760.84
2023-02-27T07:03:42.292Z,102731.94
2023-02-27T07:06:10.262Z,102721.50
2023-02-27T07:08:38.002Z,102719.31
2023-02-27T07:11:27.118Z,102726.38
2023-02-27T07:13:54.826Z,102750.63
2023-02-27T07:16:22.572Z,102775.09
2023-02-27T07:18:50.331Z,102762.13
2023-02-27T07:21:18.288Z,102758.22
2023-02-27T07:23:46.028Z,102760.84
2023-02-27T07:26:13.728Z,102778.63
2023-02-27T07:28:42.860Z,102780.72
2023-02-27T07:31:11.784Z,102786.88
2023-02-27T07:33:39.562Z,102797.34
2023-02-27T07:36:08.148Z,102769.44
2023-02-27T07:38:35.911Z,102773.03
2023-02-27T07:41:03.635Z,102775.13
2023-02-27T07:43:31.489Z,102775.75
2023-02-27T07:46:04.028Z,102790.38
2023-02-27T07:48:32.185Z,102769.63
2023-02-27T07:51:00.459Z,102772.50
2023-02-27T07:53:28.239Z,102780.63
2023-02-27T07:55:55.964Z,102784.31
2023-02-27T07:58:23.718Z,102788.06
2023-02-27T08:00:52.035Z,102784.13
2023-02-27T08:03:21.200Z,102776.00
2023-02-27T08:05:49.493Z,102778.28
2023-02-27T08:08:17.230Z,102788.28
2023-02-27T08:10:45.024Z,102777.13
2023-02-27T08:13:12.739Z,102816.13
2023-02-27T08:15:40.443Z,102834.94
2023-02-27T08:18:08.859Z,102839.72
2023-02-27T08:20:38.048Z,102864.50
2023-02-27T08:23:05.780Z,102852.41
2023-02-27T08:25:33.609Z,102875.41
2023-02-27T08:28:01.367Z,102872.91
2023-02-27T08:30:29.084Z,102887.06
2023-02-27T08:32:57.249Z,102887.06
2023-02-27T08:35:25.011Z,102867.97
2023-02-27T08:37:54.103Z,102887.66
2023-02-27T08:40:21.880Z,102880.47
2023-02-27T08:42:51.641Z,102895.78
2023-02-27T08:45:19.481Z,102901.56
2023-02-27T08:47:47.255Z,102892.28
2023-02-27T08:50:15.040Z,102892.81
2023-02-27T08:52:42.788Z,102901.13
2023-02-27T08:55:12.474Z,102897.31
2023-02-27T08:57:40.160Z,102891.75
2023-02-27T09:00:10.626Z,102904.75
2023-02-27T09:02:38.527Z,102918.59
2023-02-27T09:05:07.163Z,102913.59
2023-02-27T09:07:34.870Z,102926.38
2023-02-27T09:10:02.588Z,102929.22
2023-02-27T09:12:31.666Z,102921.31
2023-02-27T09:14:59.415Z,102929.91
2023-02-27T09:17:27.173Z,102931.66
2023-02-27T09:19:57.242Z,102932.72
2023-02-27T09:22:25.578Z,102917.19
2023-02-27T09:24:53.606Z,102907.69
2023-02-27T09:27:21.387Z,102917.34
2023-02-27T09:29:55.383Z,102930.06
2023-02-27T09:32:23.486Z,102924.38
2023-02-27T09:34:51.536Z,102931.66
2023-02-27T09:37:20.041Z,102939.91
2023-02-27T09:39:47.898Z,102947.19
2023-02-27T09:42:20.175Z,102938.78
2023-02-27T09:44:51.565Z,102941.91
2023-02-27T09:47:24.424Z,102940.72
2023-02-27T09:50:03.813Z,102939.53
2023-02-27T09:52:33.999Z,102955.34
2023-02-27T09:55:01.868Z,102944.03
2023-02-27T09:57:42.219Z,102949.06
2023-02-27T10:00:30.414Z,102944.09
2023-02-27T10:03:07.605Z,102935.03
2023-02-27T10:05:42.210Z,102950.84
2023-02-27T10:08:18.051Z,102948.00
2023-02-27T10:10:55.089Z,102939.44
2023-02-27T10:13:40.443Z,102948.59
2023-02-27T10:16:12.915Z,102941.97
2023-02-27T10:18:52.102Z,102943.69
2023-02-27T10:21:25.338Z,102951.63
2023-02-27T10:23:57.548Z,102942.84
2023-02-27T10:26:30.028Z,102960.81
2023-02-27T10:28:59.149Z,102962.44
2023-02-27T10:31:32.729Z,102966.25
2023-02-27T10:34:02.225Z,102980.41
2023-02-27T10:36:34.368Z,102981.03
2023-02-27T10:39:06.097Z,102990.78
2023-02-27T10:41:35.826Z,102995.75
2023-02-27T10:44:03.641Z,102986.69
2023-02-27T10:46:35.965Z,102986.41
2023-02-27T10:49:13.482Z,102997.47
2023-02-27T10:51:41.198Z,102984.88
2023-02-27T10:54:23.628Z,103003.66
2023-02-27T10:56:53.575Z,102992.56
2023-02-27T10:59:25.067Z,103006.28
2023-02-27T11:01:56.336Z,102999.72
2023-02-27T11:04:31.506Z,102995.03
2023-02-27T11:07:01.569Z,102992.34
2023-02-27T11:09:32.492Z,102985.16
2023-02-27T11:12:13.160Z,102994.81
2023-02-27T11:14:50.832Z,103001.25
2023-02-27T11:17:26.796Z,103000.22
2023-02-27T11:19:54.596Z,102997.28
2023-02-27T11:22:24.851Z,103003.44
2023-02-27T11:24:53.365Z,102993.59
2023-02-27T11:27:26.488Z,103002.94
2023-02-27T11:29:59.207Z,103001.03
2023-02-27T11:32:37.198Z,102990.88
2023-02-27T11:35:06.448Z,102989.63
2023-02-27T11:37:36.545Z,103003.28
2023-02-27T11:40:15.769Z,102988.50
2023-02-27T11:42:46.914Z,102991.22
2023-02-27T11:46:18.991Z,102990.56
2023-02-27T11:48:22.362Z,102987.97
2023-02-27T11:51:09.569Z,102982.72
2023-02-27T11:53:59.368Z,102980.63
2023-02-27T11:56:33.366Z,102973.19
2023-02-27T11:59:05.725Z,102972.56
2023-02-27T12:01:40.355Z,102983.03
2023-02-27T12:04:19.157Z,102966.06
2023-02-27T12:06:53.046Z,102981.22
2023-02-27T12:09:34.024Z,102967.94
2023-02-27T12:12:03.869Z,102968.00
2023-02-27T12:14:41.861Z,102972.72
2023-02-27T12:17:16.445Z,102966.06
2023-02-27T12:19:56.722Z,102962.69
2023-02-27T12:22:29.049Z,102971.81
2023-02-27T12:25:01.197Z,102965.22
2023-02-27T12:27:39.031Z,102962.47
2023-02-27T12:30:14.365Z,102950.28
2023-02-27T12:32:44.839Z,102955.00
2023-02-27T12:35:18.165Z,102961.19
2023-02-27T12:37:46.304Z,102955.22
2023-02-27T12:40:18.151Z,102945.31
2023-02-27T12:43:14.004Z,102951.03
2023-02-27T12:45:59.044Z,102959.88
2023-02-27T12:48:41.355Z,102956.25
2023-02-27T12:51:22.558Z,102957.00
2023-02-27T12:54:04.904Z,102956.63
2023-02-27T12:56:42.207Z,102960.22
2023-02-27T12:59:23.808Z,102974.16
2023-02-27T13:01:59.283Z,102966.00
2023-02-27T13:04:33.697Z,102962.50
2023-02-27T13:07:09.859Z,102971.34
2023-02-27T13:09:45.220Z,102961.81
2023-02-27T13:12:23.704Z,102957.75
2023-02-27T13:14:57.826Z,102971.34
2023-02-27T13:17:32.607Z,102969.69
2023-02-27T13:20:07.334Z,102973.41
2023-02-27T13:22:43.815Z,102964.66
2023-02-27T13:25:15.841Z,102976.56
2023-02-27T13:27:48.527Z,102983.38
2023-02-27T13:30:22.834Z,102984.19
2023-02-27T13:32:57.080Z,102985.38
2023-02-27T13:35:39.480Z,102985.53
2023-02-27T13:38:32.243Z,102986.78
2023-02-27T13:41:39.275Z,103000.00
2023-02-27T13:44:39.384Z,103011.03
2023-02-27T13:47:40.848Z,103012.84
2023-02-27T13:50:45.681Z,103015.63
2023-02-27T13:53:21.200Z,103010.00
2023-02-27T13:55:49.145Z,103009.22
2023-02-27T13:58:21.772Z,103020.38
2023-02-27T14:00:58.453Z,103032.59
2023-02-27T14:03:30.108Z,103022.53
2023-02-27T14:06:03.062Z,103027.38
2023-02-27T14:08:38.531Z,103019.28
2023-02-27T14:11:18.721Z,103030.19
2023-02-27T14:14:05.136Z,103020.69
2023-02-27T14:16:58.193Z,103022.59
2023-02-27T14:19:57.186Z,103027.81
2023-02-27T14:23:09.606Z,103037.53
2023-02-27T14:25:41.167Z,103039.03
2023-02-27T14:28:21.265Z,103034.47
2023-02-27T14:30:54.408Z,103036.22
2023-02-27T14:33:39.154Z,103036.63
2023-02-27T14:36:10.412Z,103032.59
2023-02-27T14:38:39.599Z,103026.94
2023-02-27T14:41:23.331Z,103024.19
2023-02-27T14:43:56.756Z,103029.47
2023-02-27T14:46:28.491Z,103026.00
2023-02-27T14:48:57.952Z,103026.06
2023-02-27T14:51:27.172Z,103009.22
2023-02-27T14:54:07.312Z,103014.69
2023-02-27T14:56:36.564Z,103012.03
2023-02-27T14:59:05.192Z,103023.00
2023-02-27T15:01:37.041Z,103012.34
2023-02-27T15:04:05.896Z,103026.78
2023-02-27T15:06:38.661Z,103011.88
2023-02-27T15:09:07.708Z,103016.72
2023-02-27T15:11:46.472Z,103017.47
2023-02-27T15:14:21.977Z,103013.16
2023-02-27T15:16:55.812Z,103019.50
2023-02-27T15:19:25.729Z,103019.34
2023-02-27T15:21:55.189Z,103018.94
2023-02-27T15:24:26.324Z,103003.63
2023-02-27T15:26:59.302Z,102998.16
2023-02-27T15:29:34.717Z,103009.94
2023-02-27T15:32:03.107Z,103007.34
2023-02-27T15:34:31.323Z,103006.91
2023-02-27T15:37:00.876Z,103008.00
2023-02-27T15:39:31.305Z,103002.31
2023-02-27T15:42:03.934Z,102997.19
2023-02-27T15:44:37.871Z,103002.50
2023-02-27T15:47:06.586Z,103000.59
2023-02-27T15:49:34.434Z,103006.22
2023-02-27T15:52:05.536Z,103002.66
2023-02-27T15:54:34.486Z,103008.69
2023-02-27T15:57:06.728Z,102993.59
2023-02-27T15:59:37.937Z,103005.50
2023-02-27T16:02:07.058Z,103001.28
2023-02-27T16:04:35.750Z,102999.97
2023-02-27T16:07:08.167Z,102992.75
2023-02-27T16:09:38.325Z,103000.38
2023-02-27T16:12:25.391Z,102993.50
2023-02-27T16:14:54.482Z,102996.66
2023-02-27T16:17:28.003Z,102998.25
2023-02-27T16:19:57.324Z,102995.19
2023-02-27T16:22:25.290Z,102999.84
2023-02-27T16:24:54.540Z,102994.69
2023-02-27T16:27:26.831Z,102995.22
2023-02-27T16:29:56.477Z,103006.88
2023-02-27T16:32:27.321Z,102995.41
2023-02-27T16:35:03.826Z,103000.69
2023-02-27T16:37:43.115Z,102982.41
2023-02-27T16:40:15.359Z,102977.69
2023-02-27T16:42:45.962Z,102984.44
2023-02-27T16:45:17.151Z,102986.25
2023-02-27T16:47:45.160Z,102993.72
2023-02-27T16:50:17.449Z,103001.22
2023-02-27T16:52:45.273Z,102998.19
2023-02-27T16:55:12.998Z,102992.59
2023-02-27T16:57:40.722Z,102992.50
2023-02-27T17:00:12.782Z,102994.56
2023-02-27T17:02:43.818Z,102994.47
2023-02-27T17:05:12.070Z,102997.53
2023-02-27T17:07:39.854Z,103001.69
2023-02-27T17:10:08.350Z,102996.91
2023-02-27T17:12:36.782Z,102997.19
2023-02-27T17:15:04.836Z,103002.97
2023-02-27T17:17:36.203Z,103002.91
2023-02-27T17:20:07.445Z,103000.41
2023-02-27T17:22:36.748Z,102999.75
2023-02-27T17:25:04.950Z,103002.97
2023-02-27T17:27:32.729Z,102998.84
2023-02-27T17:30:00.459Z,102999.84
2023-02-27T17:32:28.205Z,102998.19
2023-02-27T17:34:59.182Z,102991.16
2023-02-27T17:37:27.098Z,103005.31
2023-02-27T17:39:55.418Z,103012.28
2023-02-27T17:42:25.671Z,103016.66
2023-02-27T17:44:53.643Z,103009.72
2023-02-27T17:47:21.362Z,103017.06
2023-02-27T17:49:49.261Z,103022.63
2023-02-27T17:52:18.545Z,103026.53
2023-02-27T17:54:46.224Z,103027.81
2023-02-27T17:57:13.985Z,103027.31
2023-02-27T17:59:43.245Z,103023.09
2023-02-27T18:02:11.929Z,103021.41
2023-02-27T18:04:39.835Z,103032.59
2023-02-27T18:07:07.911Z,103031.47
2023-02-27T18:09:36.961Z,103027.19
2023-02-27T18:12:04.932Z,103032.16
2023-02-27T18:14:32.706Z,103031.34
2023-02-27T18:17:00.445Z,103030.47
2023-02-27T18:19:32.261Z,103027.09
2023-02-27T18:22:00.594Z,103032.63
2023-02-27T18:24:28.301Z,103037.91
2023-02-27T18:26:57.758Z,103032.78
2023-02-27T18:29:25.486Z,103042.44
2023-02-27T18:31:54.806Z,103035.56
2023-02-27T18:34:23.627Z,103040.22
2023-02-27T18:36:52.279Z,103041.09
2023-02-27T18:39:20.574Z,103037.91
2023-02-27T18:41:48.299Z,103029.72
2023-02-27T18:44:17.380Z,103036.06
2023-02-27T18:46:45.132Z,103039.88
2023-02-27T18:49:12.878Z,103038.56
2023-02-27T18:51:40.600Z,103047.34
2023-02-27T18:54:08.470Z,103047.03
2023-02-27T18:56:36.177Z,103048.69
2023-02-27T18:59:05.322Z,103056.66
2023-02-27T19:01:38.339Z,103064.22
2023-02-27T19:04:07.792Z,103057.09
2023-02-27T19:06:38.961Z,103047.72
2023-02-27T19:09:07.421Z,103049.44
2023-02-27T19:11:35.757Z,103050.81
2023-02-27T19:14:05.480Z,103046.91
2023-02-27T19:16:34.789Z,103045.56
2023-02-27T19:19:04.866Z,103040.66
2023-02-27T19:21:33.731Z,103041.94
2023-02-27T19:24:02.416Z,103054.41
2023-02-27T19:26:30.673Z,103049.44
2023-02-27T19:28:58.568Z,103051.66
2023-02-27T19:31:26.514Z,103052.91
2023-02-27T19:33:55.835Z,103057.13
2023-02-27T19:36:25.453Z,103051.47
2023-02-27T19:38:55.372Z,103045.91
2023-02-27T19:41:24.403Z,103046.59
2023-02-27T19:43:54.856Z,103052.72
2023-02-27T19:46:27.736Z,103048.69
2023-02-27T19:49:00.878Z,103049.03
2023-02-27T19:51:29.001Z,103048.66
2023-02-27T19:53:56.905Z,103061.16
2023-02-27T19:56:26.300Z,103056.97
2023-02-27T19:58:55.009Z,103058.41
2023-02-27T20:01:27.683Z,103052.53
2023-02-27T20:03:57.829Z,103056.19
2023-02-27T20:06:28.084Z,103063.13
2023-02-27T20:08:57.125Z,103064.59
2023-02-27T20:11:25.271Z,103055.75
2023-02-27T20:13:53.148Z,103070.59
2023-02-27T20:16:24.006Z,103062.31
2023-02-27T20:18:51.781Z,103050.75
2023-02-27T20:21:22.679Z,103064.03
2023-02-27T20:23:51.637Z,103060.50
2023-02-27T20:26:21.670Z,103068.53
2023-02-27T20:28:51.943Z,103060.78
2023-02-27T20:31:22.130Z,103053.00
2023-02-27T20:33:50.417Z,103055.09
2023-02-27T20:36:20.023Z,103050.97
2023-02-27T20:38:48.010Z,103058.69
2023-02-27T20:41:18.949Z,103047.88
2023-02-27T20:43:47.066Z,103051.75
2023-02-27T20:46:17.193Z,103045.63
2023-02-27T20:48:45.573Z,103045.00
2023-02-27T20:51:15.225Z,103048.13
2023-02-27T20:53:46.923Z,103046.44
2023-02-27T20:56:15.782Z,103049.59
2023-02-27T20:58:43.531Z,103047.84
2023-02-27T21:01:12.974Z,103059.38
2023-02-27T21:03:41.769Z,103057.88
2023-02-27T21:06:11.308Z,103068.75
2023-02-27T21:08:40.607Z,103071.66
2023-02-27T21:11:11.641Z,103067.25
2023-02-27T21:13:39.425Z,103074.28
2023-02-27T21:16:10.354Z,103059.97
2023-02-27T21:18:38.684Z,103056.97
2023-02-27T21:21:08.109Z,103056.00
2023-02-27T21:23:41.025Z,103060.78
2023-02-27T21:26:11.084Z,103065.66
2023-02-27T21:28:42.546Z,103065.81
2023-02-27T21:31:10.252Z,103065.88
2023-02-27T21:33:38.026Z,103061.59
2023-02-27T21:36:06.342Z,103051.22
2023-02-27T21:38:34.045Z,103050.00
2023-02-27T21:41:06.922Z,103054.22
2023-02-27T21:43:36.293Z,103055.44
2023-02-27T21:46:07.428Z,103049.44
2023-02-27T21:48:35.648Z,103051.22
2023-02-27T21:51:04.509Z,103051.09
2023-02-27T21:53:32.639Z,103058.31
2023-02-27T21:56:03.770Z,103054.56
2023-02-27T21:58:31.538Z,103068.38
2023-02-27T22:01:00.862Z,103069.22
2023-02-27T22:03:34.162Z,103071.38
2023-02-27T22:06:02.475Z,103069.81
2023-02-27T22:08:30.234Z,103062.16
2023-02-27T22:10:58.372Z,103063.31
2023-02-27T22:13:26.139Z,103056.72
2023-02-27T22:15:54.556Z,103067.44
2023-02-27T22:18:23.689Z,103065.19
2023-02-27T22:20:51.396Z,103059.22
2023-02-27T22:23:19.293Z,103058.56
2023-02-27T22:25:47.022Z,103045.97
2023-02-27T22:28:14.789Z,103053.25
2023-02-27T22:30:42.482Z,103054.53
2023-02-27T22:33:10.233Z,103068.25
2023-02-27T22:35:39.369Z,103063.03
2023-02-27T22:38:07.119Z,103063.44
2023-02-27T22:40:36.129Z,103064.97
2023-02-27T22:43:03.901Z,103049.59
2023-02-27T22:45:31.653Z,103052.06
2023-02-27T22:47:59.397Z,103054.19
2023-02-27T22:50:27.111Z,103053.09
2023-02-27T22:52:56.188Z,103067.13
2023-02-27T22:55:24.933Z,103072.94
2023-02-27T22:57:52.652Z,103054.38
2023-02-27T23:00:20.645Z,103049.41
2023-02-27T23:02:48.378Z,103037.34
2023-02-27T23:05:16.162Z,103037.34
2023-02-27T23:07:43.874Z,103036.72
2023-02-27T23:10:13.314Z,103035.47
2023-02-27T23:12:41.073Z,103034.38
2023-02-27T23:15:10.470Z,103032.06
2023-02-27T23:17:52.078Z,103036.28
2023-02-27T23:20:24.195Z,103038.91
2023-02-27T23:22:53.097Z,103057.13
2023-02-27T23:25:22.234Z,103071.28
2023-02-27T23:27:49.952Z,103080.66
2023-02-27T23:30:17.974Z,103081.34
2023-02-27T23:32:45.754Z,103081.44
2023-02-27T23:35:16.244Z,103082.41
2023-02-27T23:37:43.973Z,103086.97
2023-02-27T23:40:12.976Z,103095.09
2023-02-27T23:42:42.034Z,103076.44
2023-02-27T23:45:10.748Z,103056.06
2023-02-27T23:47:44.914Z,103056.28
2023-02-27T23:50:13.449Z,103055.59
2023-02-27T23:52:41.164Z,103045.78
2023-02-27T23:55:09.754Z,103060.69
2023-02-27T23:57:37.498Z,103047.44
